• Join FlightAware (Why Join?)
  • Login
  • US Flag 
01:32AM EDT


 

Airport Tracker/Info


-or-


 

Live Flight TrackerFlight Track Log ✈ SKW6345 ✈ 23-Jun-2013 ✈ KDEN - KGFK

Flight Track Log - Related Links

Times and Time Zones

All times are in EDT time to prevent confusion due to time zone crossing. See the SKW6345 flight status page for this flight to view local times or setup timezone preferences in your user account.

Time Position Orientation Groundspeed Altitude Reporting Facility
EDT Latitude Longitude Course Direction KTS MPH feet Rate Location/Type
03:40PM 39.8833 -104.5667 75° East 200 230 7,400  Level Denver TRACON
03:41PM 39.9000 -104.4833 75° East 277 319 8,600 1,680 Climbing Denver TRACON
03:42PM 39.9356 -104.4297 49° Northeast 303 349 10,100 2,280 Climbing Denver Center
03:43PM 40.0275 -104.4014 13° North 318 366 12,600 2,340 Climbing Denver Center
03:44PM 40.1133 -104.3756 13° North 319 367 15,000 1,980 Climbing Denver Center
03:45PM 40.2067 -104.3453 14° North 324 373 16,700 1,560 Climbing Denver Center
03:46PM 40.3042 -104.3178 12° North 355 409 18,300 1,500 Climbing Denver Center
03:47PM 40.3989 -104.2872 14° North 353 406 19,800 1,320 Climbing Denver Center
03:48PM 40.5094 -104.2575 12° North 377 434 21,100 1,200 Climbing Denver Center
03:49PM 40.6097 -104.2128 19° North 385 443 22,300 1,200 Climbing Denver Center
03:50PM 40.7219 -104.1539 22° Northeast 400 460 23,700 1,200 Climbing Denver Center
03:51PM 40.8214 -104.0986 23° Northeast 391 450 24,900 1,140 Climbing Denver Center
03:52PM 40.9244 -104.0411 23° Northeast 402 463 26,100 1,080 Climbing Denver Center
03:53PM 41.0228 -103.9617 31° Northeast 403 464 27,200 960 Climbing Denver Center
03:54PM 41.1308 -103.8703 32° Northeast 409 471 28,200 840 Climbing Denver Center
03:55PM 41.2247 -103.7908 32° Northeast 418 481 29,000 660 Climbing Denver Center
03:56PM 41.3197 -103.7097 33° Northeast 424 488 29,600 660 Climbing Denver Center
03:57PM 41.4311 -103.6133 33° Northeast 428 493 30,400 660 Climbing Denver Center
03:58PM 41.5292 -103.5292 33° Northeast 437 503 31,000 600 Climbing Denver Center
03:59PM 41.6442 -103.4314 32° Northeast 439 505 31,700 540 Climbing Denver Center
04:00PM 41.7425 -103.3447 33° Northeast 443 510 32,200 540 Climbing Denver Center
04:01PM 41.8594 -103.2442 33° Northeast 446 513 32,900 360 Climbing Denver Center
04:02PM 41.9600 -103.1550 33° Northeast 451 519 33,000  Climbing Denver Center
04:03PM 42.0808 -103.0483 33° Northeast 465 535 33,000  Level Denver Center
04:04PM 42.1842 -102.9578 33° Northeast 465 535 33,000  Level Denver Center
04:05PM 42.3067 -102.8492 33° Northeast 470 541 33,000  Level Denver Center
04:06PM 42.4097 -102.7578 33° Northeast 467 537 33,000  Level Denver Center
04:07PM 42.5319 -102.6481 33° Northeast 471 542 33,000  Level Denver Center
04:08PM 42.6336 -102.5553 34° Northeast 464 534 33,000  Level Denver Center
04:10PM 42.7547 -102.4461 33° Northeast 467 537 33,000  Level Denver Center
04:11PM 42.8586 -102.3531 33° Northeast 469 540 33,000  Level Denver Center
04:12PM 42.9608 -102.2597 34° Northeast 464 534 33,000  Level Denver Center
04:13PM 43.0806 -102.1503 34° Northeast 464 534 33,000  Level Denver Center
04:14PM 43.1836 -102.0569 33° Northeast 465 535 33,000  Level Denver Center
04:15PM 43.3025 -101.9478 34° Northeast 461 531 33,000  Level Denver Center
04:16PM 43.4250 -101.8344 34° Northeast 460 529 33,000  Level Denver Center
04:17PM 43.5308 -101.7358 34° Northeast 459 528 33,000  Level Denver Center
04:18PM 43.6369 -101.6381 34° Northeast 460 529 33,000  Level Denver Center
04:19PM 43.7625 -101.5178 35° Northeast 459 528 33,000  Level Denver Center
04:20PM 43.8689 -101.4197 34° Northeast 459 528 33,000  Level Denver Center
04:21PM 43.9728 -101.3186 35° Northeast 456 525 33,000  Level Denver Center
04:22PM 43.9936 -101.2983 35° Northeast 458 527 33,000  Level Minneapolis Center
04:23PM 44.1200 -101.1781 34° Northeast 458 527 33,000  Level Minneapolis Center
04:23PM 44.1822 -101.1147 36° Northeast 459 528 33,000  Level Denver Center
04:24PM 44.2467 -101.0578 32° Northeast 459 528 33,000  Level Minneapolis Center
04:25PM 44.3525 -100.9553 35° Northeast 460 529 33,000  Level Minneapolis Center
04:26PM 44.4578 -100.8539 34° Northeast 460 529 33,000  Level Minneapolis Center
04:27PM 44.5850 -100.7311 34° Northeast 461 531 33,000  Level Minneapolis Center
04:28PM 44.6903 -100.6278 35° Northeast 461 531 33,000  Level Minneapolis Center
04:29PM 44.7967 -100.5244 35° Northeast 463 533 33,000  Level Minneapolis Center
04:30PM 44.9233 -100.3994 35° Northeast 462 532 33,000  Level Minneapolis Center
04:31PM 45.0308 -100.2933 35° Northeast 466 536 33,000  Level Minneapolis Center
04:32PM 45.1383 -100.1908 34° Northeast 461 531 33,000  Level Minneapolis Center
04:33PM 45.2467 -100.0806 36° Northeast 466 536 33,000  Level Minneapolis Center
04:34PM 45.3525 -99.9717 36° Northeast 466 536 33,000  Level Minneapolis Center
04:35PM 45.4794 -99.8436 35° Northeast 463 533 33,000  Level Minneapolis Center
04:36PM 45.5847 -99.7364 35° Northeast 463 533 33,000  Level Minneapolis Center
04:37PM 45.6903 -99.6281 36° Northeast 465 535 33,000  Level Minneapolis Center
04:39PM 45.7961 -99.5197 36° Northeast 466 536 33,000  Level Minneapolis Center
04:40PM 45.9228 -99.3897 36° Northeast 466 536 33,000  Level Minneapolis Center
04:41PM 46.0289 -99.2797 36° Northeast 469 540 33,000  Level Minneapolis Center
04:42PM 46.1611 -99.1417 36° Northeast 470 541 33,000  Level Minneapolis Center
04:43PM 46.2681 -99.0303 36° Northeast 473 544 33,000  Level Minneapolis Center
04:44PM 46.3750 -98.9178 36° Northeast 475 547 33,000  Level Minneapolis Center
04:45PM 46.4817 -98.8050 36° Northeast 476 548 33,000  Level Minneapolis Center
04:46PM 46.5889 -98.6911 36° Northeast 477 549 33,000  Level Minneapolis Center
04:47PM 46.6958 -98.5769 36° Northeast 477 549 33,000 -540 Level Minneapolis Center
04:48PM 46.8025 -98.4608 37° Northeast 478 550 31,900 -2,340 Descending Minneapolis Center
04:49PM 46.9364 -98.3172 36° Northeast 494 568 28,200 -3,300 Descending Minneapolis Center
04:50PM 47.0456 -98.1992 36° Northeast 489 563 25,100 -3,000 Descending Minneapolis Center
04:51PM 47.1500 -98.0853 37° Northeast 474 545 22,100 -2,940 Descending Minneapolis Center
04:52PM 47.2500 -97.9772 36° Northeast 452 520 19,100 -3,300 Descending Minneapolis Center
04:53PM 47.3633 -97.8531 37° Northeast 439 505 15,400 -3,300 Descending Minneapolis Center
04:54PM 47.4533 -97.7528 37° Northeast 405 466 12,300 -2,160 Descending Minneapolis Center
04:55PM 47.5308 -97.6642 38° Northeast 385 443 11,000 -1,140 Descending Minneapolis Center
04:56PM 47.6233 -97.5406 42° Northeast 331 381 9,800 -1,260 Descending Minneapolis Center
04:57PM 47.6744 -97.4611 46° Northeast 332 382 8,400 -1,740 Descending Minneapolis Center
04:58PM 47.7378 -97.3556 48° Northeast 301 346 6,300 -1,740 Descending Minneapolis Center
04:59PM 47.7831 -97.2858 46° Northeast 295 339 4,800 -1,200 Descending Minneapolis Center
05:00PM 47.8297 -97.2103 47° Northeast 270 311 4,000 -1,380 Descending Minneapolis Center
05:02PM 47.8803 -97.1806 22° Northeast 160 184 2,000 -1,380 Descending Minneapolis Center
05:03PM 47.9200 -97.1806 360° North 145 167 1,200 -540 Descending Minneapolis Center
05:04PM 47.9592 -97.1847 356° North 159 183 1,000 -240 Descending Minneapolis Center
05:06PM 47.9473 -97.1738 146° Southeast  Level Estimated